Terminal Aerodrome Forecast
Issued by NWS

Home | Current Version | Previous Version | Text Only | Print | Product List | Glossary On
Versions: 1 2 3 4 5 6 7 8 9 10
000
FTUS46 KSTO 281100
TAFSMF
TAF
KSMF 281137Z 2812/2912 VRB03KT P6SM SCT250
      TEMPO 2812/2816 4SM BR
     FM281900 32006KT P6SM FEW250
      TEMPO 2908/2912 4SM BR=

USA.gov is the U.S. government's official web portal to all federal, state and local government web resources and services.